Tallaght, Ireland
Current Conditions -  °F | °C
As of 4:00 PM on Thursday 18 Dec 2014 (Local Time) from EIME Reporting Station
Light Rain Light Rain  
Wind Chill: 54°   Ceiling: 900
Heat Index: 54°   Visibility: 3mi
Dew Point: 52°   Wind: 22mph
Humidity: 94%   Direction: 250°WSW
Pressure: 29.59"   Gusts: NA
Location:  53.29°N, 6.37°W
Report Text: EIME 181600Z 25019KT 5000 -RADZ OVC009 12/11 Q1002
Loading
Personal Weather Stations






























Interactive Weather Map New forecast layout! Learn more

10-Day Weather Forecast

Advertisements
Track Severe Weather on mobile